sensor_id;sensor_type;location;lat;lon;timestamp;temperature;humidity
2407;DHT22;37709;53.480;9.688;2022-12-29T00:01:01;7.70;99.90
2407;DHT22;37709;53.480;9.688;2022-12-29T00:03:29;7.70;99.90
2407;DHT22;37709;53.480;9.688;2022-12-29T00:05:57;7.80;99.90
2407;DHT22;37709;53.480;9.688;2022-12-29T00:08:25;7.70;99.90
2407;DHT22;37709;53.480;9.688;2022-12-29T00:11:16;7.80;99.90
2407;DHT22;37709;53.480;9.688;2022-12-29T00:13:43;7.90;99.90
2407;DHT22;37709;53.480;9.688;2022-12-29T00:16:31;7.90;99.90
2407;DHT22;37709;53.480;9.688;2022-12-29T00:18:59;7.90;99.90
2407;DHT22;37709;53.480;9.688;2022-12-29T00:21:27;7.90;99.90
2407;DHT22;37709;53.480;9.688;2022-12-29T00:24:19;8.00;99.90
2407;DHT22;37709;53.480;9.688;2022-12-29T00:29:49;8.00;99.90
2407;DHT22;37709;53.480;9.688;2022-12-29T00:32:35;8.00;99.90
2407;DHT22;37709;53.480;9.688;2022-12-29T00:35:44;8.10;99.90
2407;DHT22;37709;53.480;9.688;2022-12-29T00:38:13;8.00;99.90
2407;DHT22;37709;53.480;9.688;2022-12-29T00:40:59;8.10;99.90
2407;DHT22;37709;53.480;9.688;2022-12-29T00:43:45;8.10;99.90
2407;DHT22;37709;53.480;9.688;2022-12-29T00:46:32;8.10;99.90
2407;DHT22;37709;53.480;9.688;2022-12-29T00:49:00;8.10;99.90
2407;DHT22;37709;53.480;9.688;2022-12-29T00:51:48;8.10;99.90
2407;DHT22;37709;53.480;9.688;2022-12-29T00:54:15;8.20;99.90
2407;DHT22;37709;53.480;9.688;2022-12-29T00:56:46;8.20;99.90
2407;DHT22;37709;53.480;9.688;2022-12-29T00:59:16;8.20;99.90
2407;DHT22;37709;53.480;9.688;2022-12-29T01:01:45;8.30;99.90
2407;DHT22;37709;53.480;9.688;2022-12-29T01:04:13;8.20;99.90
2407;DHT22;37709;53.480;9.688;2022-12-29T01:06:40;8.30;99.90
2407;DHT22;37709;53.480;9.688;2022-12-29T01:09:09;8.30;99.90
2407;DHT22;37709;53.480;9.688;2022-12-29T01:11:56;8.40;99.90
2407;DHT22;37709;53.480;9.688;2022-12-29T01:14:23;8.30;99.90
2407;DHT22;37709;53.480;9.688;2022-12-29T01:16:51;8.40;99.90
2407;DHT22;37709;53.480;9.688;2022-12-29T01:19:19;8.40;99.90
2407;DHT22;37709;53.480;9.688;2022-12-29T01:21:47;8.40;99.90
2407;DHT22;37709;53.480;9.688;2022-12-29T01:24:15;8.40;99.90
2407;DHT22;37709;53.480;9.688;2022-12-29T01:26:44;8.40;99.90
2407;DHT22;37709;53.480;9.688;2022-12-29T01:29:11;8.40;99.90
2407;DHT22;37709;53.480;9.688;2022-12-29T01:31:39;8.40;99.90
2407;DHT22;37709;53.480;9.688;2022-12-29T01:34:08;8.40;99.90
2407;DHT22;37709;53.480;9.688;2022-12-29T01:36:37;8.40;99.90
2407;DHT22;37709;53.480;9.688;2022-12-29T01:39:05;8.40;99.90
2407;DHT22;37709;53.480;9.688;2022-12-29T01:41:33;8.40;99.90
2407;DHT22;37709;53.480;9.688;2022-12-29T01:44:01;8.50;99.90
2407;DHT22;37709;53.480;9.688;2022-12-29T01:46:38;8.40;99.90
2407;DHT22;37709;53.480;9.688;2022-12-29T01:49:17;8.40;99.90
2407;DHT22;37709;53.480;9.688;2022-12-29T01:51:48;8.40;99.90
2407;DHT22;37709;53.480;9.688;2022-12-29T01:54:26;8.40;99.90
2407;DHT22;37709;53.480;9.688;2022-12-29T01:56:57;8.50;99.90
2407;DHT22;37709;53.480;9.688;2022-12-29T01:59:29;8.40;99.90
2407;DHT22;37709;53.480;9.688;2022-12-29T02:01:58;8.40;99.90
2407;DHT22;37709;53.480;9.688;2022-12-29T02:04:30;8.50;99.90
2407;DHT22;37709;53.480;9.688;2022-12-29T02:07:06;8.50;99.90
2407;DHT22;37709;53.480;9.688;2022-12-29T02:09:38;8.50;99.90
2407;DHT22;37709;53.480;9.688;2022-12-29T02:12:05;8.50;99.90
2407;DHT22;37709;53.480;9.688;2022-12-29T02:14:33;8.50;99.90
2407;DHT22;37709;53.480;9.688;2022-12-29T02:17:29;8.50;99.90
2407;DHT22;37709;53.480;9.688;2022-12-29T02:26:15;8.60;99.90
2407;DHT22;37709;53.480;9.688;2022-12-29T02:32:21;8.60;99.90
2407;DHT22;37709;53.480;9.688;2022-12-29T02:38:20;8.60;99.90
2407;DHT22;37709;53.480;9.688;2022-12-29T02:41:16;8.50;99.90
2407;DHT22;37709;53.480;9.688;2022-12-29T02:46:19;8.60;99.90
2407;DHT22;37709;53.480;9.688;2022-12-29T02:49:16;8.70;99.90
2407;DHT22;37709;53.480;9.688;2022-12-29T02:52:00;8.70;99.90
2407;DHT22;37709;53.480;9.688;2022-12-29T02:54:28;8.70;99.90
2407;DHT22;37709;53.480;9.688;2022-12-29T02:57:32;8.70;99.90
2407;DHT22;37709;53.480;9.688;2022-12-29T03:00:13;8.80;99.90
2407;DHT22;37709;53.480;9.688;2022-12-29T03:02:58;8.80;99.90
2407;DHT22;37709;53.480;9.688;2022-12-29T03:11:02;8.80;99.90
2407;DHT22;37709;53.480;9.688;2022-12-29T03:13:59;8.90;99.90
2407;DHT22;37709;53.480;9.688;2022-12-29T03:16:51;8.90;99.90
2407;DHT22;37709;53.480;9.688;2022-12-29T03:19:28;8.90;99.90
2407;DHT22;37709;53.480;9.688;2022-12-29T03:22:01;8.90;99.90
2407;DHT22;37709;53.480;9.688;2022-12-29T03:27:29;8.90;99.90
2407;DHT22;37709;53.480;9.688;2022-12-29T03:30:01;8.90;99.90
2407;DHT22;37709;53.480;9.688;2022-12-29T03:32:36;8.90;99.90
2407;DHT22;37709;53.480;9.688;2022-12-29T03:35:06;8.90;99.90
2407;DHT22;37709;53.480;9.688;2022-12-29T03:37:39;9.00;99.90
2407;DHT22;37709;53.480;9.688;2022-12-29T03:40:08;9.00;99.90
2407;DHT22;37709;53.480;9.688;2022-12-29T03:42:36;9.00;99.90
2407;DHT22;37709;53.480;9.688;2022-12-29T03:45:07;9.00;99.90
2407;DHT22;37709;53.480;9.688;2022-12-29T03:47:36;9.10;99.90
2407;DHT22;37709;53.480;9.688;2022-12-29T03:50:05;9.00;99.90
2407;DHT22;37709;53.480;9.688;2022-12-29T03:52:36;9.00;99.90
2407;DHT22;37709;53.480;9.688;2022-12-29T03:55:05;9.00;99.90
2407;DHT22;37709;53.480;9.688;2022-12-29T03:57:33;9.10;99.90
2407;DHT22;37709;53.480;9.688;2022-12-29T04:00:06;9.10;99.90
2407;DHT22;37709;53.480;9.688;2022-12-29T04:02:41;9.10;99.90
2407;DHT22;37709;53.480;9.688;2022-12-29T04:05:13;9.20;99.90
2407;DHT22;37709;53.480;9.688;2022-12-29T04:07:41;9.20;99.90
2407;DHT22;37709;53.480;9.688;2022-12-29T04:10:09;9.20;99.90
2407;DHT22;37709;53.480;9.688;2022-12-29T04:12:36;9.10;99.90
2407;DHT22;37709;53.480;9.688;2022-12-29T04:15:05;9.20;99.90
2407;DHT22;37709;53.480;9.688;2022-12-29T04:17:33;9.20;99.90
2407;DHT22;37709;53.480;9.688;2022-12-29T04:20:02;9.30;99.90
2407;DHT22;37709;53.480;9.688;2022-12-29T04:22:48;9.20;99.90
2407;DHT22;37709;53.480;9.688;2022-12-29T04:25:16;9.30;99.90
2407;DHT22;37709;53.480;9.688;2022-12-29T04:27:44;9.30;99.90
2407;DHT22;37709;53.480;9.688;2022-12-29T04:30:30;9.30;99.90
2407;DHT22;37709;53.480;9.688;2022-12-29T04:33:05;9.20;99.90
2407;DHT22;37709;53.480;9.688;2022-12-29T04:35:33;9.20;99.90
2407;DHT22;37709;53.480;9.688;2022-12-29T04:38:01;9.20;99.90
2407;DHT22;37709;53.480;9.688;2022-12-29T04:40:28;9.30;99.90
2407;DHT22;37709;53.480;9.688;2022-12-29T04:42:56;9.30;99.90
2407;DHT22;37709;53.480;9.688;2022-12-29T04:45:24;9.30;99.90
2407;DHT22;37709;53.480;9.688;2022-12-29T04:47:58;9.40;99.90
2407;DHT22;37709;53.480;9.688;2022-12-29T04:50:42;9.40;99.90
2407;DHT22;37709;53.480;9.688;2022-12-29T04:53:16;9.40;99.90
2407;DHT22;37709;53.480;9.688;2022-12-29T04:55:49;9.40;99.90
2407;DHT22;37709;53.480;9.688;2022-12-29T04:58:18;9.40;99.90
2407;DHT22;37709;53.480;9.688;2022-12-29T05:00:50;9.40;99.90
2407;DHT22;37709;53.480;9.688;2022-12-29T05:03:23;9.40;99.90
2407;DHT22;37709;53.480;9.688;2022-12-29T05:05:54;9.40;99.90
2407;DHT22;37709;53.480;9.688;2022-12-29T05:08:22;9.40;99.90
2407;DHT22;37709;53.480;9.688;2022-12-29T05:10:57;9.50;99.90
2407;DHT22;37709;53.480;9.688;2022-12-29T05:13:25;9.40;99.90
2407;DHT22;37709;53.480;9.688;2022-12-29T05:15:53;9.50;99.90
2407;DHT22;37709;53.480;9.688;2022-12-29T05:18:23;9.50;99.90
2407;DHT22;37709;53.480;9.688;2022-12-29T05:20:50;9.50;99.90
2407;DHT22;37709;53.480;9.688;2022-12-29T05:23:19;9.50;99.90
2407;DHT22;37709;53.480;9.688;2022-12-29T05:25:53;9.50;99.90
2407;DHT22;37709;53.480;9.688;2022-12-29T05:28:28;9.50;99.90
2407;DHT22;37709;53.480;9.688;2022-12-29T05:31:05;9.50;99.90
2407;DHT22;37709;53.480;9.688;2022-12-29T05:33:32;9.50;99.90
2407;DHT22;37709;53.480;9.688;2022-12-29T05:36:07;9.60;99.90
2407;DHT22;37709;53.480;9.688;2022-12-29T05:38:37;9.60;99.90
2407;DHT22;37709;53.480;9.688;2022-12-29T05:41:04;9.60;99.90
2407;DHT22;37709;53.480;9.688;2022-12-29T05:43:52;9.50;99.90
2407;DHT22;37709;53.480;9.688;2022-12-29T05:46:29;9.60;99.90
2407;DHT22;37709;53.480;9.688;2022-12-29T05:49:17;9.60;99.90
2407;DHT22;37709;53.480;9.688;2022-12-29T05:52:17;9.50;99.90
2407;DHT22;37709;53.480;9.688;2022-12-29T05:54:44;9.50;99.90
2407;DHT22;37709;53.480;9.688;2022-12-29T05:57:15;9.50;99.90
2407;DHT22;37709;53.480;9.688;2022-12-29T05:59:46;9.60;99.90
2407;DHT22;37709;53.480;9.688;2022-12-29T06:02:14;9.60;99.90
2407;DHT22;37709;53.480;9.688;2022-12-29T06:04:42;9.50;99.90
2407;DHT22;37709;53.480;9.688;2022-12-29T06:07:09;9.60;99.90
2407;DHT22;37709;53.480;9.688;2022-12-29T06:09:41;9.60;99.90
2407;DHT22;37709;53.480;9.688;2022-12-29T06:12:09;9.50;99.90
2407;DHT22;37709;53.480;9.688;2022-12-29T06:14:38;9.50;99.90
2407;DHT22;37709;53.480;9.688;2022-12-29T06:17:06;9.50;99.90
2407;DHT22;37709;53.480;9.688;2022-12-29T06:19:34;9.40;99.90
2407;DHT22;37709;53.480;9.688;2022-12-29T06:22:01;9.40;99.90
2407;DHT22;37709;53.480;9.688;2022-12-29T06:24:32;9.30;99.90
2407;DHT22;37709;53.480;9.688;2022-12-29T06:26:59;9.30;99.90
2407;DHT22;37709;53.480;9.688;2022-12-29T06:29:27;9.30;99.90
2407;DHT22;37709;53.480;9.688;2022-12-29T06:31:57;9.30;99.90
2407;DHT22;37709;53.480;9.688;2022-12-29T06:34:26;9.20;99.90
2407;DHT22;37709;53.480;9.688;2022-12-29T06:36:53;9.20;99.90
2407;DHT22;37709;53.480;9.688;2022-12-29T06:39:21;9.20;99.90
2407;DHT22;37709;53.480;9.688;2022-12-29T06:42:00;9.20;99.90
2407;DHT22;37709;53.480;9.688;2022-12-29T06:44:45;9.20;99.90
2407;DHT22;37709;53.480;9.688;2022-12-29T06:47:12;9.30;99.90
2407;DHT22;37709;53.480;9.688;2022-12-29T06:49:39;9.20;99.90
2407;DHT22;37709;53.480;9.688;2022-12-29T06:52:07;9.20;99.90
2407;DHT22;37709;53.480;9.688;2022-12-29T06:54:39;9.20;99.90
2407;DHT22;37709;53.480;9.688;2022-12-29T06:57:06;9.30;99.90
2407;DHT22;37709;53.480;9.688;2022-12-29T06:59:33;9.20;99.90
2407;DHT22;37709;53.480;9.688;2022-12-29T07:02:01;9.20;99.90
2407;DHT22;37709;53.480;9.688;2022-12-29T07:04:29;9.20;99.90
2407;DHT22;37709;53.480;9.688;2022-12-29T07:06:57;9.20;99.90
2407;DHT22;37709;53.480;9.688;2022-12-29T07:09:24;9.10;99.90
2407;DHT22;37709;53.480;9.688;2022-12-29T07:11:52;9.10;99.90
2407;DHT22;37709;53.480;9.688;2022-12-29T07:14:19;9.10;99.90
2407;DHT22;37709;53.480;9.688;2022-12-29T07:16:46;9.10;99.90
2407;DHT22;37709;53.480;9.688;2022-12-29T07:19:13;9.10;99.90
2407;DHT22;37709;53.480;9.688;2022-12-29T07:21:41;9.10;99.90
2407;DHT22;37709;53.480;9.688;2022-12-29T07:24:12;9.10;99.90
2407;DHT22;37709;53.480;9.688;2022-12-29T07:26:40;9.10;99.90
2407;DHT22;37709;53.480;9.688;2022-12-29T07:29:09;9.10;99.90
2407;DHT22;37709;53.480;9.688;2022-12-29T07:31:37;9.10;99.90
2407;DHT22;37709;53.480;9.688;2022-12-29T07:34:05;9.10;99.90
2407;DHT22;37709;53.480;9.688;2022-12-29T07:36:32;9.20;99.90
2407;DHT22;37709;53.480;9.688;2022-12-29T07:39:02;9.20;99.90
2407;DHT22;37709;53.480;9.688;2022-12-29T07:41:30;9.20;99.90
2407;DHT22;37709;53.480;9.688;2022-12-29T07:44:00;9.30;99.90
2407;DHT22;37709;53.480;9.688;2022-12-29T07:46:46;9.20;99.90
2407;DHT22;37709;53.480;9.688;2022-12-29T07:49:23;9.20;99.90
2407;DHT22;37709;53.480;9.688;2022-12-29T07:51:51;9.20;99.90
2407;DHT22;37709;53.480;9.688;2022-12-29T07:54:18;9.20;99.90
2407;DHT22;37709;53.480;9.688;2022-12-29T07:56:46;9.10;99.90
2407;DHT22;37709;53.480;9.688;2022-12-29T07:59:13;9.10;99.90
2407;DHT22;37709;53.480;9.688;2022-12-29T08:01:41;9.10;99.90
2407;DHT22;37709;53.480;9.688;2022-12-29T08:04:08;9.10;99.90
2407;DHT22;37709;53.480;9.688;2022-12-29T08:06:35;9.10;99.90
2407;DHT22;37709;53.480;9.688;2022-12-29T08:09:04;9.10;99.90
2407;DHT22;37709;53.480;9.688;2022-12-29T08:11:43;9.10;99.90
2407;DHT22;37709;53.480;9.688;2022-12-29T08:14:11;9.00;99.90
2407;DHT22;37709;53.480;9.688;2022-12-29T08:16:38;9.00;99.90
2407;DHT22;37709;53.480;9.688;2022-12-29T08:19:06;8.90;99.90
2407;DHT22;37709;53.480;9.688;2022-12-29T08:21:33;8.80;99.90
2407;DHT22;37709;53.480;9.688;2022-12-29T08:24:01;8.90;99.90
2407;DHT22;37709;53.480;9.688;2022-12-29T08:26:28;9.10;99.90
2407;DHT22;37709;53.480;9.688;2022-12-29T08:28:56;9.20;99.90
2407;DHT22;37709;53.480;9.688;2022-12-29T08:31:23;9.30;99.90
2407;DHT22;37709;53.480;9.688;2022-12-29T08:33:52;9.30;99.90
2407;DHT22;37709;53.480;9.688;2022-12-29T08:36:19;9.30;99.90
2407;DHT22;37709;53.480;9.688;2022-12-29T08:38:46;9.30;99.90
2407;DHT22;37709;53.480;9.688;2022-12-29T08:41:14;9.30;99.90
2407;DHT22;37709;53.480;9.688;2022-12-29T08:43:41;9.40;99.90
2407;DHT22;37709;53.480;9.688;2022-12-29T08:46:12;9.50;99.90
2407;DHT22;37709;53.480;9.688;2022-12-29T08:48:39;9.80;99.90
2407;DHT22;37709;53.480;9.688;2022-12-29T08:51:12;9.80;99.90
2407;DHT22;37709;53.480;9.688;2022-12-29T08:53:39;10.20;99.90
2407;DHT22;37709;53.480;9.688;2022-12-29T08:56:09;10.60;99.90
2407;DHT22;37709;53.480;9.688;2022-12-29T08:58:44;10.80;99.90
2407;DHT22;37709;53.480;9.688;2022-12-29T09:01:12;10.90;99.90
2407;DHT22;37709;53.480;9.688;2022-12-29T09:03:39;10.90;99.90
2407;DHT22;37709;53.480;9.688;2022-12-29T09:06:27;10.80;99.90
2407;DHT22;37709;53.480;9.688;2022-12-29T09:08:58;10.50;99.90
2407;DHT22;37709;53.480;9.688;2022-12-29T09:11:26;10.40;99.90
2407;DHT22;37709;53.480;9.688;2022-12-29T09:13:54;10.20;99.90
2407;DHT22;37709;53.480;9.688;2022-12-29T09:16:23;10.00;99.90
2407;DHT22;37709;53.480;9.688;2022-12-29T09:18:50;9.80;99.90
2407;DHT22;37709;53.480;9.688;2022-12-29T09:21:43;9.80;99.90
2407;DHT22;37709;53.480;9.688;2022-12-29T09:24:10;9.70;99.90
2407;DHT22;37709;53.480;9.688;2022-12-29T09:26:38;10.20;99.90
2407;DHT22;37709;53.480;9.688;2022-12-29T09:29:12;10.40;99.90
2407;DHT22;37709;53.480;9.688;2022-12-29T09:31:40;11.10;99.90
2407;DHT22;37709;53.480;9.688;2022-12-29T09:34:07;11.50;99.90
2407;DHT22;37709;53.480;9.688;2022-12-29T09:36:35;11.00;99.90
2407;DHT22;37709;53.480;9.688;2022-12-29T09:39:03;10.50;99.90
2407;DHT22;37709;53.480;9.688;2022-12-29T09:41:39;10.30;99.90
2407;DHT22;37709;53.480;9.688;2022-12-29T09:44:31;10.30;99.90
2407;DHT22;37709;53.480;9.688;2022-12-29T09:47:09;10.30;99.90
2407;DHT22;37709;53.480;9.688;2022-12-29T09:49:44;10.20;99.90
2407;DHT22;37709;53.480;9.688;2022-12-29T09:52:22;10.10;99.90
2407;DHT22;37709;53.480;9.688;2022-12-29T09:54:58;10.40;99.90
2407;DHT22;37709;53.480;9.688;2022-12-29T09:58:05;10.40;99.90
2407;DHT22;37709;53.480;9.688;2022-12-29T10:03:16;10.40;99.90
2407;DHT22;37709;53.480;9.688;2022-12-29T10:05:52;10.80;99.90
2407;DHT22;37709;53.480;9.688;2022-12-29T10:08:29;11.00;99.90
2407;DHT22;37709;53.480;9.688;2022-12-29T10:13:42;11.50;99.90
2407;DHT22;37709;53.480;9.688;2022-12-29T10:16:22;11.40;99.90
2407;DHT22;37709;53.480;9.688;2022-12-29T10:19:33;10.90;99.90
2407;DHT22;37709;53.480;9.688;2022-12-29T10:22:28;10.70;99.90
2407;DHT22;37709;53.480;9.688;2022-12-29T10:24:58;10.90;99.90
2407;DHT22;37709;53.480;9.688;2022-12-29T10:27:31;12.00;99.90
2407;DHT22;37709;53.480;9.688;2022-12-29T10:30:01;12.00;99.90
2407;DHT22;37709;53.480;9.688;2022-12-29T10:32:37;11.70;99.90
2407;DHT22;37709;53.480;9.688;2022-12-29T10:35:14;11.40;99.90
2407;DHT22;37709;53.480;9.688;2022-12-29T10:37:59;11.20;99.90
2407;DHT22;37709;53.480;9.688;2022-12-29T10:43:26;11.50;99.90
2407;DHT22;37709;53.480;9.688;2022-12-29T10:46:01;11.70;99.90
2407;DHT22;37709;53.480;9.688;2022-12-29T10:48:34;12.00;99.90
2407;DHT22;37709;53.480;9.688;2022-12-29T10:51:05;11.90;99.90
2407;DHT22;37709;53.480;9.688;2022-12-29T10:53:52;11.70;99.90
2407;DHT22;37709;53.480;9.688;2022-12-29T10:56:40;11.50;99.90
2407;DHT22;37709;53.480;9.688;2022-12-29T10:59:20;11.50;99.90
2407;DHT22;37709;53.480;9.688;2022-12-29T11:01:55;11.40;99.90
2407;DHT22;37709;53.480;9.688;2022-12-29T11:07:04;13.90;99.90
2407;DHT22;37709;53.480;9.688;2022-12-29T11:09:40;13.30;99.90
2407;DHT22;37709;53.480;9.688;2022-12-29T11:12:30;12.30;99.90
2407;DHT22;37709;53.480;9.688;2022-12-29T11:17:48;11.40;99.90
2407;DHT22;37709;53.480;9.688;2022-12-29T11:20:37;11.30;99.90
2407;DHT22;37709;53.480;9.688;2022-12-29T11:23:22;11.20;99.90
2407;DHT22;37709;53.480;9.688;2022-12-29T11:26:14;11.10;99.90
2407;DHT22;37709;53.480;9.688;2022-12-29T11:28:47;11.10;99.90
2407;DHT22;37709;53.480;9.688;2022-12-29T11:31:17;11.20;99.90
2407;DHT22;37709;53.480;9.688;2022-12-29T11:33:45;11.00;99.90
2407;DHT22;37709;53.480;9.688;2022-12-29T11:36:22;10.90;99.90
2407;DHT22;37709;53.480;9.688;2022-12-29T11:38:54;10.80;99.90
2407;DHT22;37709;53.480;9.688;2022-12-29T11:41:24;10.90;99.90
2407;DHT22;37709;53.480;9.688;2022-12-29T11:43:54;10.60;99.90
2407;DHT22;37709;53.480;9.688;2022-12-29T11:46:25;10.30;99.90
2407;DHT22;37709;53.480;9.688;2022-12-29T11:48:56;10.10;99.90
2407;DHT22;37709;53.480;9.688;2022-12-29T11:51:29;10.20;99.90
2407;DHT22;37709;53.480;9.688;2022-12-29T11:53:59;10.20;99.90
2407;DHT22;37709;53.480;9.688;2022-12-29T11:56:39;10.30;99.90
2407;DHT22;37709;53.480;9.688;2022-12-29T12:01:54;10.20;99.90
2407;DHT22;37709;53.480;9.688;2022-12-29T12:04:26;10.10;99.90
2407;DHT22;37709;53.480;9.688;2022-12-29T12:07:12;10.40;99.90
2407;DHT22;37709;53.480;9.688;2022-12-29T12:09:51;10.60;99.90
2407;DHT22;37709;53.480;9.688;2022-12-29T12:12:58;10.50;99.90
2407;DHT22;37709;53.480;9.688;2022-12-29T12:15:42;10.50;99.90
2407;DHT22;37709;53.480;9.688;2022-12-29T12:21:25;10.70;99.90
2407;DHT22;37709;53.480;9.688;2022-12-29T12:32:39;10.20;99.90
2407;DHT22;37709;53.480;9.688;2022-12-29T12:35:24;10.20;99.90
2407;DHT22;37709;53.480;9.688;2022-12-29T12:38:04;10.20;99.90
2407;DHT22;37709;53.480;9.688;2022-12-29T12:40:49;10.20;99.90
2407;DHT22;37709;53.480;9.688;2022-12-29T12:43:40;10.10;99.90
2407;DHT22;37709;53.480;9.688;2022-12-29T12:46:37;9.90;99.90
2407;DHT22;37709;53.480;9.688;2022-12-29T12:58:00;9.90;99.90
2407;DHT22;37709;53.480;9.688;2022-12-29T13:00:34;10.00;99.90
2407;DHT22;37709;53.480;9.688;2022-12-29T13:09:12;9.80;99.90
2407;DHT22;37709;53.480;9.688;2022-12-29T13:26:12;8.90;99.90
2407;DHT22;37709;53.480;9.688;2022-12-29T13:29:05;8.80;99.90
2407;DHT22;37709;53.480;9.688;2022-12-29T13:31:56;8.80;99.90
2407;DHT22;37709;53.480;9.688;2022-12-29T13:34:45;8.80;99.90
2407;DHT22;37709;53.480;9.688;2022-12-29T13:37:18;8.70;99.90
2407;DHT22;37709;53.480;9.688;2022-12-29T13:39:52;8.80;99.90
2407;DHT22;37709;53.480;9.688;2022-12-29T13:42:22;8.90;99.90
2407;DHT22;37709;53.480;9.688;2022-12-29T13:45:09;9.00;99.90
2407;DHT22;37709;53.480;9.688;2022-12-29T13:47:44;9.10;99.90
2407;DHT22;37709;53.480;9.688;2022-12-29T13:50:16;9.10;99.90
2407;DHT22;37709;53.480;9.688;2022-12-29T14:00:28;9.00;99.90
2407;DHT22;37709;53.480;9.688;2022-12-29T14:08:56;8.70;99.90
2407;DHT22;37709;53.480;9.688;2022-12-29T14:11:31;8.30;99.90
2407;DHT22;37709;53.480;9.688;2022-12-29T14:14:09;7.80;99.90
2407;DHT22;37709;53.480;9.688;2022-12-29T14:16:38;7.50;99.90
2407;DHT22;37709;53.480;9.688;2022-12-29T14:19:28;7.30;99.90
2407;DHT22;37709;53.480;9.688;2022-12-29T14:22:02;7.20;99.90
2407;DHT22;37709;53.480;9.688;2022-12-29T14:34:56;7.40;99.90
2407;DHT22;37709;53.480;9.688;2022-12-29T14:40:16;7.40;99.90
2407;DHT22;37709;53.480;9.688;2022-12-29T14:42:47;7.20;99.90
2407;DHT22;37709;53.480;9.688;2022-12-29T14:47:48;7.00;99.90
2407;DHT22;37709;53.480;9.688;2022-12-29T14:50:25;7.00;99.90
2407;DHT22;37709;53.480;9.688;2022-12-29T14:52:56;6.90;99.90
2407;DHT22;37709;53.480;9.688;2022-12-29T14:55:47;6.90;99.90
2407;DHT22;37709;53.480;9.688;2022-12-29T14:58:31;6.80;99.90
2407;DHT22;37709;53.480;9.688;2022-12-29T15:01:00;6.70;99.90
2407;DHT22;37709;53.480;9.688;2022-12-29T15:03:46;6.60;99.90
2407;DHT22;37709;53.480;9.688;2022-12-29T15:06:18;6.60;99.90
2407;DHT22;37709;53.480;9.688;2022-12-29T15:09:04;6.50;99.90
2407;DHT22;37709;53.480;9.688;2022-12-29T15:11:42;6.40;99.90
2407;DHT22;37709;53.480;9.688;2022-12-29T15:14:30;6.40;99.90
2407;DHT22;37709;53.480;9.688;2022-12-29T15:16:57;6.40;99.90
2407;DHT22;37709;53.480;9.688;2022-12-29T15:19:26;6.50;99.90
2407;DHT22;37709;53.480;9.688;2022-12-29T15:21:54;6.50;99.90
2407;DHT22;37709;53.480;9.688;2022-12-29T15:24:23;6.50;99.90
2407;DHT22;37709;53.480;9.688;2022-12-29T15:26:53;6.50;99.90
2407;DHT22;37709;53.480;9.688;2022-12-29T15:29:41;6.50;99.90
2407;DHT22;37709;53.480;9.688;2022-12-29T15:34:45;6.60;99.90
2407;DHT22;37709;53.480;9.688;2022-12-29T15:37:26;6.70;99.90
2407;DHT22;37709;53.480;9.688;2022-12-29T15:39:55;6.70;99.90
2407;DHT22;37709;53.480;9.688;2022-12-29T15:45:11;6.70;99.90
2407;DHT22;37709;53.480;9.688;2022-12-29T15:47:43;6.80;99.90
2407;DHT22;37709;53.480;9.688;2022-12-29T15:50:30;6.80;99.90
2407;DHT22;37709;53.480;9.688;2022-12-29T15:53:00;6.80;99.90
2407;DHT22;37709;53.480;9.688;2022-12-29T15:55:37;6.70;99.90
2407;DHT22;37709;53.480;9.688;2022-12-29T15:58:22;6.70;99.90
2407;DHT22;37709;53.480;9.688;2022-12-29T16:00:59;6.70;99.90
2407;DHT22;37709;53.480;9.688;2022-12-29T16:03:30;6.60;99.90
2407;DHT22;37709;53.480;9.688;2022-12-29T16:06:28;6.70;99.90
2407;DHT22;37709;53.480;9.688;2022-12-29T16:09:05;6.70;99.90
2407;DHT22;37709;53.480;9.688;2022-12-29T16:11:37;6.70;99.90
2407;DHT22;37709;53.480;9.688;2022-12-29T16:14:17;6.80;99.90
2407;DHT22;37709;53.480;9.688;2022-12-29T16:16:47;6.80;99.90
2407;DHT22;37709;53.480;9.688;2022-12-29T16:19:26;6.80;99.90
2407;DHT22;37709;53.480;9.688;2022-12-29T16:21:54;6.80;99.90
2407;DHT22;37709;53.480;9.688;2022-12-29T16:24:26;6.90;99.90
2407;DHT22;37709;53.480;9.688;2022-12-29T16:27:21;6.90;99.90
2407;DHT22;37709;53.480;9.688;2022-12-29T16:29:52;6.90;99.90
2407;DHT22;37709;53.480;9.688;2022-12-29T16:32:27;6.90;99.90
2407;DHT22;37709;53.480;9.688;2022-12-29T16:37:40;6.90;99.90
2407;DHT22;37709;53.480;9.688;2022-12-29T16:42:48;6.80;99.90
2407;DHT22;37709;53.480;9.688;2022-12-29T16:48:29;6.80;99.90
2407;DHT22;37709;53.480;9.688;2022-12-29T16:50:38;6.80;99.90
2407;DHT22;37709;53.480;9.688;2022-12-29T16:53:20;6.80;99.90
2407;DHT22;37709;53.480;9.688;2022-12-29T16:55:49;6.80;99.90
2407;DHT22;37709;53.480;9.688;2022-12-29T16:58:19;6.80;99.90
2407;DHT22;37709;53.480;9.688;2022-12-29T17:00:48;6.80;99.90
2407;DHT22;37709;53.480;9.688;2022-12-29T17:03:16;6.80;99.90
2407;DHT22;37709;53.480;9.688;2022-12-29T17:05:43;6.60;99.90
2407;DHT22;37709;53.480;9.688;2022-12-29T17:08:20;6.60;99.90
2407;DHT22;37709;53.480;9.688;2022-12-29T17:10:54;6.70;99.90
2407;DHT22;37709;53.480;9.688;2022-12-29T17:13:41;6.80;99.90
2407;DHT22;37709;53.480;9.688;2022-12-29T17:16:10;6.80;99.90
2407;DHT22;37709;53.480;9.688;2022-12-29T17:18:38;6.70;99.90
2407;DHT22;37709;53.480;9.688;2022-12-29T17:21:09;6.70;99.90
2407;DHT22;37709;53.480;9.688;2022-12-29T17:23:36;6.80;99.90
2407;DHT22;37709;53.480;9.688;2022-12-29T17:26:04;6.90;99.90
2407;DHT22;37709;53.480;9.688;2022-12-29T17:28:34;7.00;99.90
2407;DHT22;37709;53.480;9.688;2022-12-29T17:31:03;7.10;99.90
2407;DHT22;37709;53.480;9.688;2022-12-29T17:33:36;7.10;99.90
2407;DHT22;37709;53.480;9.688;2022-12-29T17:36:04;7.10;99.90
2407;DHT22;37709;53.480;9.688;2022-12-29T17:38:34;7.10;99.90
2407;DHT22;37709;53.480;9.688;2022-12-29T17:41:02;7.20;99.90
2407;DHT22;37709;53.480;9.688;2022-12-29T17:43:29;7.20;99.90
2407;DHT22;37709;53.480;9.688;2022-12-29T17:46:05;7.20;99.90
2407;DHT22;37709;53.480;9.688;2022-12-29T17:48:33;7.30;99.90
2407;DHT22;37709;53.480;9.688;2022-12-29T17:51:00;7.30;99.90
2407;DHT22;37709;53.480;9.688;2022-12-29T17:53:29;7.20;99.90
2407;DHT22;37709;53.480;9.688;2022-12-29T17:55:56;7.10;99.90
2407;DHT22;37709;53.480;9.688;2022-12-29T17:58:25;7.00;99.90
2407;DHT22;37709;53.480;9.688;2022-12-29T18:00:58;7.00;99.90
2407;DHT22;37709;53.480;9.688;2022-12-29T18:03:37;7.00;99.90
2407;DHT22;37709;53.480;9.688;2022-12-29T18:06:06;7.20;99.90
2407;DHT22;37709;53.480;9.688;2022-12-29T18:08:35;7.20;99.90
2407;DHT22;37709;53.480;9.688;2022-12-29T18:11:02;7.20;99.90
2407;DHT22;37709;53.480;9.688;2022-12-29T18:13:31;7.20;99.90
2407;DHT22;37709;53.480;9.688;2022-12-29T18:16:12;7.20;99.90
2407;DHT22;37709;53.480;9.688;2022-12-29T18:18:40;7.20;99.90
2407;DHT22;37709;53.480;9.688;2022-12-29T18:21:21;7.10;99.90
2407;DHT22;37709;53.480;9.688;2022-12-29T18:23:49;7.10;99.90
2407;DHT22;37709;53.480;9.688;2022-12-29T18:26:25;7.00;99.90
2407;DHT22;37709;53.480;9.688;2022-12-29T18:28:56;6.90;99.90
2407;DHT22;37709;53.480;9.688;2022-12-29T18:31:27;6.90;99.90
2407;DHT22;37709;53.480;9.688;2022-12-29T18:33:56;7.00;99.90
2407;DHT22;37709;53.480;9.688;2022-12-29T18:36:24;7.10;99.90
2407;DHT22;37709;53.480;9.688;2022-12-29T18:38:52;7.10;99.90
2407;DHT22;37709;53.480;9.688;2022-12-29T18:41:26;7.10;99.90
2407;DHT22;37709;53.480;9.688;2022-12-29T18:43:56;7.00;99.90
2407;DHT22;37709;53.480;9.688;2022-12-29T18:46:23;7.00;99.90
2407;DHT22;37709;53.480;9.688;2022-12-29T18:48:51;7.00;99.90